Ultra Omega — V7NS2 — position and weather

sailwx.info

Track history (hours):
 
Tides and Currents Weather Stations Pressure Air Temp Water Temp Dewpoint Dewpoint Depression Visibility Wind Speed Wind Dir Waves Ship Positions

Ultra Omega

Last reported at 2017-Oct-28 16:34 UTC. Time now 2017-Nov-24 14:48 UTC.
Position N 35°14' W 127°28'.
Warning: this ship's position is 26 days out of date.

Length 199 m; draft 11.3 m.

Type: Cargo ship. MMSI: 538006494.

Date/timePositionNaut miles runAvg speedWind from/ knotsBaromVisibWave heightAir tempDewpointWater temp
2017-Oct-28 16:34N 35°14' W 127°28'211.4
2017-Oct-28 16:26N 35°13' W 127°26'15011.9
2017-Oct-28 03:46N 33°47' W 124°56'311.8
2017-Oct-28 03:30N 33°45' W 124°53'712.1
2017-Oct-28 02:57N 33°42' W 124°47'2611.4
2017-Oct-28 00:38N 33°39' W 124°15'411.5
2017-Oct-28 00:16N 33°39' W 124°10'311.6
2017-Oct-28 00:00N 33°39' W 124°06'611.6
2017-Oct-27 23:30N 33°39' W 123°59'811.6
2017-Oct-27 22:51N 33°40' W 123°50'411.7
2017-Oct-27 22:30N 33°40' W 123°45'611.5
2017-Oct-27 22:00N 33°40' W 123°38'611.4
2017-Oct-27 21:30N 33°41' W 123°32'711.5
2017-Oct-27 20:54N 33°41' W 123°23'411.3
2017-Oct-27 20:30N 33°41' W 123°18'611.3
2017-Oct-27 20:00N 33°41' W 123°11'611.3
2017-Oct-27 19:30N 33°42' W 123°04'611.3
2017-Oct-27 19:00N 33°42' W 122°58'611.3
2017-Oct-27 18:28N 33°42' W 122°50'511.6
2017-Oct-27 18:00N 33°42' W 122°44'611.4
2017-Oct-27 17:29N 33°43' W 122°37'1211.3
2017-Oct-27 16:25N 33°43' W 122°22'511.2
2017-Oct-27 15:58N 33°44' W 122°16'1111.4
2017-Oct-27 14:58N 33°49' W 122°04'611.5
2017-Oct-27 14:27N 33°51' W 121°57'611.5
2017-Oct-27 13:53N 33°54' W 121°50'611.6
2017-Oct-27 13:22N 33°56' W 121°43'411.3
2017-Oct-27 13:00N 33°58' W 121°39'611.5
2017-Oct-27 12:30N 33°60' W 121°32'611.6
2017-Oct-27 11:58N 34°02' W 121°25'511.2
2017-Oct-27 11:30N 34°04' W 121°19'611.4
2017-Oct-27 11:00N 34°06' W 121°13'611.1
2017-Oct-27 10:30N 34°09' W 121°07'611.0
2017-Oct-27 10:00N 34°10' W 121°00'611.1
2017-Oct-27 09:30N 34°12' W 120°54'611.2
2017-Oct-27 09:00N 34°14' W 120°48'611.4
2017-Oct-27 08:30N 34°16' W 120°42'611.4
2017-Oct-27 08:00N 34°18' W 120°35'611.7
2017-Oct-27 07:30N 34°20' W 120°28'611.6
2017-Oct-27 07:00N 34°19' W 120°22'611.7
2017-Oct-27 06:30N 34°18' W 120°15'611.8
2017-Oct-27 06:00N 34°16' W 120°08'711.6
2017-Oct-27 05:26N 34°15' W 120°00'511.5
2017-Oct-27 04:59N 34°13' W 119°54'611.1
2017-Oct-27 04:28N 34°11' W 119°48'511.5
2017-Oct-27 04:00N 34°10' W 119°41'612.0
2017-Oct-27 03:30N 34°09' W 119°34'711.5
2017-Oct-27 02:55N 34°07' W 119°26'511.1
2017-Oct-27 02:30N 34°05' W 119°21'611.7
2017-Oct-27 02:00N 34°03' W 119°14'612.0
2017-Oct-27 01:29N 34°01' W 119°08'611.9
2017-Oct-27 00:59N 33°58' W 119°01'611.9
2017-Oct-27 00:28N 33°55' W 118°55'811.7
2017-Oct-26 23:49N 33°51' W 118°47'411.7
2017-Oct-26 23:30N 33°49' W 118°43'611.8
2017-Oct-26 23:00N 33°46' W 118°37'611.9
2017-Oct-26 22:30N 33°43' W 118°31'611.9
2017-Oct-26 21:59N 33°40' W 118°24'611.4
2017-Oct-26 21:30N 33°39' W 118°18'4 8.0
2017-Oct-26 21:00N 33°43' W 118°15'2 5.0
2017-Oct-26 20:30N 33°45' W 118°16'1 1.8
2017-Oct-26 19:56N 33°46' W 118°15'0 0.0
2017-Oct-26 19:26N 33°46' W 118°15'0 0.0
2017-Oct-26 18:56N 33°46' W 118°15'0 0.0
2017-Oct-26 18:26N 33°46' W 118°15'0 0.0
2017-Oct-26 17:56N 33°46' W 118°15'0 0.0
2017-Oct-26 17:20N 33°46' W 118°15'0 0.0
2017-Oct-26 16:56N 33°46' W 118°15'0 0.0
2017-Oct-26 16:26N 33°46' W 118°15'0 0.0
2017-Oct-26 15:56N 33°46' W 118°15'0 0.0
2017-Oct-26 15:26N 33°46' W 118°15'0 0.0
2017-Oct-26 14:50N 33°46' W 118°15'0 0.0
2017-Oct-26 13:08N 33°46' W 118°15'0 0.0
2017-Oct-26 12:50N 33°46' W 118°15'0 0.0
2017-Oct-26 12:14N 33°46' W 118°15'0 0.0
2017-Oct-26 11:56N 33°46' W 118°15'0 0.0
2017-Oct-26 11:26N 33°46' W 118°15'0 0.0
2017-Oct-26 10:56N 33°46' W 118°15'0 0.0
2017-Oct-26 10:26N 33°46' W 118°15'0 0.0
2017-Oct-26 09:56N 33°46' W 118°15'0 0.0
2017-Oct-26 09:20N 33°46' W 118°15'0 0.0
2017-Oct-26 08:56N 33°46' W 118°15'0 0.0
2017-Oct-26 08:26N 33°46' W 118°15'0 0.0
2017-Oct-26 07:56N 33°46' W 118°15'0 0.0
2017-Oct-26 07:26N 33°46' W 118°15'0 0.0
2017-Oct-26 06:56N 33°46' W 118°15'0 0.0
2017-Oct-26 06:26N 33°46' W 118°15'0 0.0
2017-Oct-26 05:56N 33°46' W 118°15'0 0.0
2017-Oct-26 05:20N 33°46' W 118°15'0 0.0
2017-Oct-26 04:56N 33°46' W 118°15'0 0.0
2017-Oct-26 04:26N 33°46' W 118°15'0 0.0
2017-Oct-26 03:50N 33°46' W 118°15'0 0.0
2017-Oct-26 03:26N 33°46' W 118°15'0 0.1
2017-Oct-26 02:56N 33°46' W 118°15'0 0.0
2017-Oct-26 02:20N 33°46' W 118°15'0 0.0
2017-Oct-26 01:56N 33°46' W 118°15'0 0.0
2017-Oct-26 01:26N 33°46' W 118°15'0 0.0
2017-Oct-26 00:56N 33°46' W 118°15'0 0.0
2017-Oct-26 00:26N 33°46' W 118°15'0 0.0
2017-Oct-25 23:56N 33°46' W 118°15'0 0.0
2017-Oct-25 23:26N 33°46' W 118°15'0 0.0
2017-Oct-25 22:56N 33°46' W 118°15'0 0.0
2017-Oct-25 22:26N 33°46' W 118°15'0 0.0
2017-Oct-25 21:56N 33°46' W 118°15'0 0.0
2017-Oct-25 21:26N 33°46' W 118°15'0 0.0
2017-Oct-25 20:50N 33°46' W 118°15'0 0.0
2017-Oct-25 20:26N 33°46' W 118°15'0 0.0
2017-Oct-25 19:56N 33°46' W 118°15'0 0.1
2017-Oct-25 19:08N 33°46' W 118°15'0 0.0
2017-Oct-25 18:56N 33°46' W 118°15'0 0.0
2017-Oct-25 18:26N 33°46' W 118°15'0 0.0
2017-Oct-25 17:50N 33°46' W 118°15'0 0.0
2017-Oct-25 17:14N 33°46' W 118°15'0 0.0
2017-Oct-25 16:50N 33°46' W 118°15'0 0.0
2017-Oct-25 16:26N 33°46' W 118°15'0 0.0
2017-Oct-25 15:50N 33°46' W 118°15'0 0.0
2017-Oct-25 15:26N 33°46' W 118°15'0 0.0
2017-Oct-25 14:20N 33°46' W 118°15'0 0.0
2017-Oct-25 13:50N 33°46' W 118°15'0 0.0
2017-Oct-25 13:14N 33°46' W 118°15'0 0.0
2017-Oct-25 12:44N 33°46' W 118°15'0 0.0
2017-Oct-25 12:20N 33°46' W 118°15'0 0.0
2017-Oct-25 11:26N 33°46' W 118°15'0 0.0
2017-Oct-25 10:20N 33°46' W 118°15'0 0.0
2017-Oct-25 09:50N 33°46' W 118°15'0 0.0
2017-Oct-25 08:20N 33°46' W 118°15'0 0.0
2017-Oct-25 07:56N 33°46' W 118°15'0 0.0
2017-Oct-25 06:50N 33°46' W 118°15'0 0.0
2017-Oct-25 06:20N 33°46' W 118°15'0 0.0
2017-Oct-25 05:56N 33°46' W 118°15'0 0.0
2017-Oct-25 05:26N 33°46' W 118°15'0 0.0
2017-Oct-25 04:56N 33°46' W 118°15'0 0.0
2017-Oct-25 04:26N 33°46' W 118°15'0 0.0
2017-Oct-25 03:38N 33°46' W 118°15'0 0.0
2017-Oct-25 03:26N 33°46' W 118°15'0 0.0
2017-Oct-25 02:38N 33°46' W 118°15'0 0.0
2017-Oct-25 02:26N 33°46' W 118°15'0 0.0
2017-Oct-25 01:44N 33°46' W 118°15'0 0.0
2017-Oct-25 01:26N 33°46' W 118°15'0 0.0
2017-Oct-25 00:50N 33°46' W 118°15'0 0.0
2017-Oct-25 00:14N 33°46' W 118°15'0 0.0
2017-Oct-24 23:56N 33°46' W 118°15'0 0.0
2017-Oct-24 23:20N 33°46' W 118°15'0 0.0
2017-Oct-24 22:50N 33°46' W 118°15'0 0.0
2017-Oct-24 22:26N 33°46' W 118°15'0 0.0
2017-Oct-24 21:56N 33°46' W 118°15'0 0.0
2017-Oct-24 21:26N 33°46' W 118°15'0 0.0
2017-Oct-24 20:44N 33°46' W 118°15'0 0.0
2017-Oct-24 20:26N 33°46' W 118°15'0 0.0
2017-Oct-24 19:56N 33°46' W 118°15'0 0.0
2017-Oct-24 19:26N 33°46' W 118°15'0 0.1
2017-Oct-24 18:56N 33°46' W 118°15'0 0.0
2017-Oct-24 18:26N 33°46' W 118°15'0 0.0
2017-Oct-24 17:50N 33°46' W 118°15'0 0.0
2017-Oct-24 17:26N 33°46' W 118°15'0 0.0
2017-Oct-24 16:56N 33°46' W 118°15'0 0.0
2017-Oct-24 16:14N 33°46' W 118°15'0 0.0
2017-Oct-24 12:02N 33°46' W 118°15'0 0.0
2017-Oct-24 11:50N 33°46' W 118°15'0 0.0
2017-Oct-24 11:20N 33°46' W 118°15'0 0.0
2017-Oct-24 10:44N 33°46' W 118°15'0 0.0
2017-Oct-24 10:14N 33°46' W 118°15'0 0.0
2017-Oct-24 05:50N 33°46' W 118°15'0 0.0
2017-Oct-24 05:26N 33°46' W 118°15'0 0.1
2017-Oct-24 04:26N 33°46' W 118°15'0 0.0
2017-Oct-24 03:38N 33°46' W 118°15'0 0.0
2017-Oct-24 02:32N 33°46' W 118°15'0 0.0
2017-Oct-24 01:26N 33°46' W 118°15'0 0.0
2017-Oct-24 00:56N 33°46' W 118°15'0 0.0
2017-Oct-24 00:26N 33°46' W 118°15'0 0.0
2017-Oct-23 23:56N 33°46' W 118°15'0 0.0
2017-Oct-23 23:14N 33°46' W 118°15'0 0.0
2017-Oct-23 22:56N 33°46' W 118°15'0 0.0
2017-Oct-23 22:26N 33°46' W 118°15'0 0.0
2017-Oct-23 21:44N 33°46' W 118°15'0 0.0
2017-Oct-23 21:08N 33°46' W 118°15'0 0.0
2017-Oct-23 20:44N 33°46' W 118°15'0 0.0
2017-Oct-23 20:26N 33°46' W 118°15'0 0.0
2017-Oct-23 19:56N 33°46' W 118°15'0 0.0
2017-Oct-23 19:26N 33°46' W 118°15'0 0.0
2017-Oct-23 18:26N 33°46' W 118°15'0 0.0
2017-Oct-23 17:38N 33°46' W 118°15'0 0.0
2017-Oct-23 01:25N 33°46' W 118°15'0 0.4
2017-Oct-23 00:56N 33°46' W 118°15'2 3.3
2017-Oct-23 00:28N 33°45' W 118°17'2 3.4
2017-Oct-22 23:59N 33°43' W 118°16'3 5.3
2017-Oct-22 23:30N 33°43' W 118°13'0 0.0
2017-Oct-22 21:07N 33°43' W 118°13'0 0.1
2017-Oct-22 20:49N 33°43' W 118°13'0 0.0
2017-Oct-22 20:19N 33°43' W 118°13'0 0.1
2017-Oct-22 18:31N 33°42' W 118°13'0 0.0
2017-Oct-22 18:25N 33°42' W 118°13'0 0.1
2017-Oct-22 17:55N 33°43' W 118°13'0 0.0
2017-Oct-22 05:55N 33°43' W 118°13'0 0.1
2017-Oct-22 05:25N 33°43' W 118°13'0 0.0
2017-Oct-22 04:55N 33°43' W 118°13'0 0.0
2017-Oct-22 04:19N 33°43' W 118°13'0 0.0
2017-Oct-22 03:49N 33°43' W 118°13'0 0.0
2017-Oct-22 03:25N 33°43' W 118°13'0 0.0
2017-Oct-22 02:55N 33°43' W 118°13'0 0.0
2017-Oct-22 01:31N 33°43' W 118°13'0 0.2
2017-Oct-22 01:25N 33°43' W 118°13'0 0.0
2017-Oct-21 23:55N 33°43' W 118°13'0 0.0
2017-Oct-21 23:19N 33°43' W 118°13'0 0.0
2017-Oct-21 22:55N 33°43' W 118°13'0 0.0
2017-Oct-21 22:19N 33°43' W 118°13'0 0.0
2017-Oct-21 21:37N 33°43' W 118°13'0 0.1
2017-Oct-21 21:25N 33°43' W 118°13'0 0.0
2017-Oct-20 18:28N 33°43' W 118°13'0 0.0
2017-Oct-20 01:01N 33°43' W 118°13'0 0.0
2017-Oct-20 00:49N 33°43' W 118°13'0 0.0
2017-Oct-19 10:31N 33°43' W 118°13'0 0.1
2017-Oct-19 10:25N 33°43' W 118°13'0 0.1
2017-Oct-19 09:55N 33°43' W 118°13'0 0.0
2017-Oct-19 09:19N 33°43' W 118°13'0 0.0
2017-Oct-19 08:55N 33°43' W 118°13'0 0.0
2017-Oct-19 08:25N 33°43' W 118°13'0 0.1
2017-Oct-19 07:55N 33°43' W 118°13'0 0.1
2017-Oct-19 07:19N 33°43' W 118°13'0 0.1
2017-Oct-19 06:55N 33°43' W 118°13'0 0.1
2017-Oct-19 06:19N 33°43' W 118°13'0 0.1
2017-Oct-19 05:19N 33°43' W 118°13'0 0.1
2017-Oct-19 04:19N 33°43' W 118°13'0 0.0
2017-Oct-19 03:55N 33°43' W 118°13'0 0.0
2017-Oct-19 03:25N 33°43' W 118°13'0 0.1
2017-Oct-19 02:58N 33°43' W 118°13'0 0.0
2017-Oct-19 02:28N 33°43' W 118°13'0 0.1
2017-Oct-19 01:58N 33°43' W 118°13'0 0.0
2017-Oct-19 01:25N 33°43' W 118°13'0 0.1
2017-Oct-19 00:58N 33°43' W 118°13'0 0.1
2017-Oct-19 00:31N 33°43' W 118°13'0 0.0
2017-Oct-19 00:00N 33°43' W 118°13'0 0.0
2017-Oct-18 23:31N 33°43' W 118°13'0 0.0
2017-Oct-18 23:01N 33°43' W 118°13'0 0.1
2017-Oct-18 22:31N 33°43' W 118°13'0 0.2
2017-Oct-18 22:00N 33°43' W 118°13'0 0.3
2017-Oct-18 21:30N 33°42' W 118°13'3 5.3
2017-Oct-18 21:00N 33°40' W 118°13'510.4
2017-Oct-18 20:30N 33°36' W 118°17'6 9.9
2017-Oct-18 19:55N 33°37' W 118°24'3 8.2
2017-Oct-18 19:31N 33°39' W 118°27'4 9.0
2017-Oct-18 19:00N 33°42' W 118°32'611.9
2017-Oct-18 18:28N 33°45' W 118°38'611.8
2017-Oct-18 17:58N 33°47' W 118°45'611.6
2017-Oct-18 17:29N 33°50' W 118°51'611.8
2017-Oct-18 16:57N 33°53' W 118°57'  
Track history (hours):
 
Tides and Currents Weather Stations Pressure Air Temp Water Temp Dewpoint Dewpoint Depression Visibility Wind Speed Wind Dir Waves Ship Positions

Ultra Omega

Last reported at 2017-Oct-28 16:34 UTC. Time now 2017-Nov-24 14:48 UTC.
Position N 35°14' W 127°28'.
Warning: this ship's position is 26 days out of date.

Length 199 m; draft 11.3 m.

Type: Cargo ship. MMSI: 538006494.

Date/timePositionNaut miles runAvg speedWind from/ knotsBaromVisibWave heightAir tempDewpointWater temp
2017-Oct-28 16:34N 35°14' W 127°28'211.4
2017-Oct-28 16:26N 35°13' W 127°26'15011.9
2017-Oct-28 03:46N 33°47' W 124°56'311.8
2017-Oct-28 03:30N 33°45' W 124°53'712.1
2017-Oct-28 02:57N 33°42' W 124°47'2611.4
2017-Oct-28 00:38N 33°39' W 124°15'411.5
2017-Oct-28 00:16N 33°39' W 124°10'311.6
2017-Oct-28 00:00N 33°39' W 124°06'611.6
2017-Oct-27 23:30N 33°39' W 123°59'811.6
2017-Oct-27 22:51N 33°40' W 123°50'411.7
2017-Oct-27 22:30N 33°40' W 123°45'611.5
2017-Oct-27 22:00N 33°40' W 123°38'611.4
2017-Oct-27 21:30N 33°41' W 123°32'711.5
2017-Oct-27 20:54N 33°41' W 123°23'411.3
2017-Oct-27 20:30N 33°41' W 123°18'611.3
2017-Oct-27 20:00N 33°41' W 123°11'611.3
2017-Oct-27 19:30N 33°42' W 123°04'611.3
2017-Oct-27 19:00N 33°42' W 122°58'611.3
2017-Oct-27 18:28N 33°42' W 122°50'511.6
2017-Oct-27 18:00N 33°42' W 122°44'611.4
2017-Oct-27 17:29N 33°43' W 122°37'1211.3
2017-Oct-27 16:25N 33°43' W 122°22'511.2
2017-Oct-27 15:58N 33°44' W 122°16'1111.4
2017-Oct-27 14:58N 33°49' W 122°04'611.5
2017-Oct-27 14:27N 33°51' W 121°57'611.5
2017-Oct-27 13:53N 33°54' W 121°50'611.6
2017-Oct-27 13:22N 33°56' W 121°43'411.3
2017-Oct-27 13:00N 33°58' W 121°39'611.5
2017-Oct-27 12:30N 33°60' W 121°32'611.6
2017-Oct-27 11:58N 34°02' W 121°25'511.2
2017-Oct-27 11:30N 34°04' W 121°19'611.4
2017-Oct-27 11:00N 34°06' W 121°13'611.1
2017-Oct-27 10:30N 34°09' W 121°07'611.0
2017-Oct-27 10:00N 34°10' W 121°00'611.1
2017-Oct-27 09:30N 34°12' W 120°54'611.2
2017-Oct-27 09:00N 34°14' W 120°48'611.4
2017-Oct-27 08:30N 34°16' W 120°42'611.4
2017-Oct-27 08:00N 34°18' W 120°35'611.7
2017-Oct-27 07:30N 34°20' W 120°28'611.6
2017-Oct-27 07:00N 34°19' W 120°22'611.7
2017-Oct-27 06:30N 34°18' W 120°15'611.8
2017-Oct-27 06:00N 34°16' W 120°08'711.6
2017-Oct-27 05:26N 34°15' W 120°00'511.5
2017-Oct-27 04:59N 34°13' W 119°54'611.1
2017-Oct-27 04:28N 34°11' W 119°48'511.5
2017-Oct-27 04:00N 34°10' W 119°41'612.0
2017-Oct-27 03:30N 34°09' W 119°34'711.5
2017-Oct-27 02:55N 34°07' W 119°26'511.1
2017-Oct-27 02:30N 34°05' W 119°21'611.7
2017-Oct-27 02:00N 34°03' W 119°14'612.0
2017-Oct-27 01:29N 34°01' W 119°08'611.9
2017-Oct-27 00:59N 33°58' W 119°01'611.9
2017-Oct-27 00:28N 33°55' W 118°55'811.7
2017-Oct-26 23:49N 33°51' W 118°47'411.7
2017-Oct-26 23:30N 33°49' W 118°43'611.8
2017-Oct-26 23:00N 33°46' W 118°37'611.9
2017-Oct-26 22:30N 33°43' W 118°31'611.9
2017-Oct-26 21:59N 33°40' W 118°24'611.4
2017-Oct-26 21:30N 33°39' W 118°18'4 8.0
2017-Oct-26 21:00N 33°43' W 118°15'2 5.0
2017-Oct-26 20:30N 33°45' W 118°16'1 1.8
2017-Oct-26 19:56N 33°46' W 118°15'0 0.0
2017-Oct-26 19:26N 33°46' W 118°15'0 0.0
2017-Oct-26 18:56N 33°46' W 118°15'0 0.0
2017-Oct-26 18:26N 33°46' W 118°15'0 0.0
2017-Oct-26 17:56N 33°46' W 118°15'0 0.0
2017-Oct-26 17:20N 33°46' W 118°15'0 0.0
2017-Oct-26 16:56N 33°46' W 118°15'0 0.0
2017-Oct-26 16:26N 33°46' W 118°15'0 0.0
2017-Oct-26 15:56N 33°46' W 118°15'0 0.0
2017-Oct-26 15:26N 33°46' W 118°15'0 0.0
2017-Oct-26 14:50N 33°46' W 118°15'0 0.0
2017-Oct-26 13:08N 33°46' W 118°15'0 0.0
2017-Oct-26 12:50N 33°46' W 118°15'0 0.0
2017-Oct-26 12:14N 33°46' W 118°15'0 0.0
2017-Oct-26 11:56N 33°46' W 118°15'0 0.0
2017-Oct-26 11:26N 33°46' W 118°15'0 0.0
2017-Oct-26 10:56N 33°46' W 118°15'0 0.0
2017-Oct-26 10:26N 33°46' W 118°15'0 0.0
2017-Oct-26 09:56N 33°46' W 118°15'0 0.0
2017-Oct-26 09:20N 33°46' W 118°15'0 0.0
2017-Oct-26 08:56N 33°46' W 118°15'0 0.0
2017-Oct-26 08:26N 33°46' W 118°15'0 0.0
2017-Oct-26 07:56N 33°46' W 118°15'0 0.0
2017-Oct-26 07:26N 33°46' W 118°15'0 0.0
2017-Oct-26 06:56N 33°46' W 118°15'0 0.0
2017-Oct-26 06:26N 33°46' W 118°15'0 0.0
2017-Oct-26 05:56N 33°46' W 118°15'0 0.0
2017-Oct-26 05:20N 33°46' W 118°15'0 0.0
2017-Oct-26 04:56N 33°46' W 118°15'0 0.0
2017-Oct-26 04:26N 33°46' W 118°15'0 0.0
2017-Oct-26 03:50N 33°46' W 118°15'0 0.0
2017-Oct-26 03:26N 33°46' W 118°15'0 0.1
2017-Oct-26 02:56N 33°46' W 118°15'0 0.0
2017-Oct-26 02:20N 33°46' W 118°15'0 0.0
2017-Oct-26 01:56N 33°46' W 118°15'0 0.0
2017-Oct-26 01:26N 33°46' W 118°15'0 0.0
2017-Oct-26 00:56N 33°46' W 118°15'0 0.0
2017-Oct-26 00:26N 33°46' W 118°15'0 0.0
2017-Oct-25 23:56N 33°46' W 118°15'0 0.0
2017-Oct-25 23:26N 33°46' W 118°15'0 0.0
2017-Oct-25 22:56N 33°46' W 118°15'0 0.0
2017-Oct-25 22:26N 33°46' W 118°15'0 0.0
2017-Oct-25 21:56N 33°46' W 118°15'0 0.0
2017-Oct-25 21:26N 33°46' W 118°15'0 0.0
2017-Oct-25 20:50N 33°46' W 118°15'0 0.0
2017-Oct-25 20:26N 33°46' W 118°15'0 0.0
2017-Oct-25 19:56N 33°46' W 118°15'0 0.1
2017-Oct-25 19:08N 33°46' W 118°15'0 0.0
2017-Oct-25 18:56N 33°46' W 118°15'0 0.0
2017-Oct-25 18:26N 33°46' W 118°15'0 0.0
2017-Oct-25 17:50N 33°46' W 118°15'0 0.0
2017-Oct-25 17:14N 33°46' W 118°15'0 0.0
2017-Oct-25 16:50N 33°46' W 118°15'0 0.0
2017-Oct-25 16:26N 33°46' W 118°15'0 0.0
2017-Oct-25 15:50N 33°46' W 118°15'0 0.0
2017-Oct-25 15:26N 33°46' W 118°15'0 0.0
2017-Oct-25 14:20N 33°46' W 118°15'0 0.0
2017-Oct-25 13:50N 33°46' W 118°15'0 0.0
2017-Oct-25 13:14N 33°46' W 118°15'0 0.0
2017-Oct-25 12:44N 33°46' W 118°15'0 0.0
2017-Oct-25 12:20N 33°46' W 118°15'0 0.0
2017-Oct-25 11:26N 33°46' W 118°15'0 0.0
2017-Oct-25 10:20N 33°46' W 118°15'0 0.0
2017-Oct-25 09:50N 33°46' W 118°15'0 0.0
2017-Oct-25 08:20N 33°46' W 118°15'0 0.0
2017-Oct-25 07:56N 33°46' W 118°15'0 0.0
2017-Oct-25 06:50N 33°46' W 118°15'0 0.0
2017-Oct-25 06:20N 33°46' W 118°15'0 0.0
2017-Oct-25 05:56N 33°46' W 118°15'0 0.0
2017-Oct-25 05:26N 33°46' W 118°15'0 0.0
2017-Oct-25 04:56N 33°46' W 118°15'0 0.0
2017-Oct-25 04:26N 33°46' W 118°15'0 0.0
2017-Oct-25 03:38N 33°46' W 118°15'0 0.0
2017-Oct-25 03:26N 33°46' W 118°15'0 0.0
2017-Oct-25 02:38N 33°46' W 118°15'0 0.0
2017-Oct-25 02:26N 33°46' W 118°15'0 0.0
2017-Oct-25 01:44N 33°46' W 118°15'0 0.0
2017-Oct-25 01:26N 33°46' W 118°15'0 0.0
2017-Oct-25 00:50N 33°46' W 118°15'0 0.0
2017-Oct-25 00:14N 33°46' W 118°15'0 0.0
2017-Oct-24 23:56N 33°46' W 118°15'0 0.0
2017-Oct-24 23:20N 33°46' W 118°15'0 0.0
2017-Oct-24 22:50N 33°46' W 118°15'0 0.0
2017-Oct-24 22:26N 33°46' W 118°15'0 0.0
2017-Oct-24 21:56N 33°46' W 118°15'0 0.0
2017-Oct-24 21:26N 33°46' W 118°15'0 0.0
2017-Oct-24 20:44N 33°46' W 118°15'0 0.0
2017-Oct-24 20:26N 33°46' W 118°15'0 0.0
2017-Oct-24 19:56N 33°46' W 118°15'0 0.0
2017-Oct-24 19:26N 33°46' W 118°15'0 0.1
2017-Oct-24 18:56N 33°46' W 118°15'0 0.0
2017-Oct-24 18:26N 33°46' W 118°15'0 0.0
2017-Oct-24 17:50N 33°46' W 118°15'0 0.0
2017-Oct-24 17:26N 33°46' W 118°15'0 0.0
2017-Oct-24 16:56N 33°46' W 118°15'0 0.0
2017-Oct-24 16:14N 33°46' W 118°15'0 0.0
2017-Oct-24 12:02N 33°46' W 118°15'0 0.0
2017-Oct-24 11:50N 33°46' W 118°15'0 0.0
2017-Oct-24 11:20N 33°46' W 118°15'0 0.0
2017-Oct-24 10:44N 33°46' W 118°15'0 0.0
2017-Oct-24 10:14N 33°46' W 118°15'0 0.0
2017-Oct-24 05:50N 33°46' W 118°15'0 0.0
2017-Oct-24 05:26N 33°46' W 118°15'0 0.1
2017-Oct-24 04:26N 33°46' W 118°15'0 0.0
2017-Oct-24 03:38N 33°46' W 118°15'0 0.0
2017-Oct-24 02:32N 33°46' W 118°15'0 0.0
2017-Oct-24 01:26N 33°46' W 118°15'0 0.0
2017-Oct-24 00:56N 33°46' W 118°15'0 0.0
2017-Oct-24 00:26N 33°46' W 118°15'0 0.0
2017-Oct-23 23:56N 33°46' W 118°15'0 0.0
2017-Oct-23 23:14N 33°46' W 118°15'0 0.0
2017-Oct-23 22:56N 33°46' W 118°15'0 0.0
2017-Oct-23 22:26N 33°46' W 118°15'0 0.0
2017-Oct-23 21:44N 33°46' W 118°15'0 0.0
2017-Oct-23 21:08N 33°46' W 118°15'0 0.0
2017-Oct-23 20:44N 33°46' W 118°15'0 0.0
2017-Oct-23 20:26N 33°46' W 118°15'0 0.0
2017-Oct-23 19:56N 33°46' W 118°15'0 0.0
2017-Oct-23 19:26N 33°46' W 118°15'0 0.0
2017-Oct-23 18:26N 33°46' W 118°15'0 0.0
2017-Oct-23 17:38N 33°46' W 118°15'0 0.0
2017-Oct-23 01:25N 33°46' W 118°15'0 0.4
2017-Oct-23 00:56N 33°46' W 118°15'2 3.3
2017-Oct-23 00:28N 33°45' W 118°17'2 3.4
2017-Oct-22 23:59N 33°43' W 118°16'3 5.3
2017-Oct-22 23:30N 33°43' W 118°13'0 0.0
2017-Oct-22 21:07N 33°43' W 118°13'0 0.1
2017-Oct-22 20:49N 33°43' W 118°13'0 0.0
2017-Oct-22 20:19N 33°43' W 118°13'0 0.1
2017-Oct-22 18:31N 33°42' W 118°13'0 0.0
2017-Oct-22 18:25N 33°42' W 118°13'0 0.1
2017-Oct-22 17:55N 33°43' W 118°13'0 0.0
2017-Oct-22 05:55N 33°43' W 118°13'0 0.1
2017-Oct-22 05:25N 33°43' W 118°13'0 0.0
2017-Oct-22 04:55N 33°43' W 118°13'0 0.0
2017-Oct-22 04:19N 33°43' W 118°13'0 0.0
2017-Oct-22 03:49N 33°43' W 118°13'0 0.0
2017-Oct-22 03:25N 33°43' W 118°13'0 0.0
2017-Oct-22 02:55N 33°43' W 118°13'0 0.0
2017-Oct-22 01:31N 33°43' W 118°13'0 0.2
2017-Oct-22 01:25N 33°43' W 118°13'0 0.0
2017-Oct-21 23:55N 33°43' W 118°13'0 0.0
2017-Oct-21 23:19N 33°43' W 118°13'0 0.0
2017-Oct-21 22:55N 33°43' W 118°13'0 0.0
2017-Oct-21 22:19N 33°43' W 118°13'0 0.0
2017-Oct-21 21:37N 33°43' W 118°13'0 0.1
2017-Oct-21 21:25N 33°43' W 118°13'0 0.0
2017-Oct-20 18:28N 33°43' W 118°13'0 0.0
2017-Oct-20 01:01N 33°43' W 118°13'0 0.0
2017-Oct-20 00:49N 33°43' W 118°13'0 0.0
2017-Oct-19 10:31N 33°43' W 118°13'0 0.1
2017-Oct-19 10:25N 33°43' W 118°13'0 0.1
2017-Oct-19 09:55N 33°43' W 118°13'0 0.0
2017-Oct-19 09:19N 33°43' W 118°13'0 0.0
2017-Oct-19 08:55N 33°43' W 118°13'0 0.0
2017-Oct-19 08:25N 33°43' W 118°13'0 0.1
2017-Oct-19 07:55N 33°43' W 118°13'0 0.1
2017-Oct-19 07:19N 33°43' W 118°13'0 0.1
2017-Oct-19 06:55N 33°43' W 118°13'0 0.1
2017-Oct-19 06:19N 33°43' W 118°13'0 0.1
2017-Oct-19 05:19N 33°43' W 118°13'0 0.1
2017-Oct-19 04:19N 33°43' W 118°13'0 0.0
2017-Oct-19 03:55N 33°43' W 118°13'0 0.0
2017-Oct-19 03:25N 33°43' W 118°13'0 0.1
2017-Oct-19 02:58N 33°43' W 118°13'0 0.0
2017-Oct-19 02:28N 33°43' W 118°13'0 0.1
2017-Oct-19 01:58N 33°43' W 118°13'0 0.0
2017-Oct-19 01:25N 33°43' W 118°13'0 0.1
2017-Oct-19 00:58N 33°43' W 118°13'0 0.1
2017-Oct-19 00:31N 33°43' W 118°13'0 0.0
2017-Oct-19 00:00N 33°43' W 118°13'0 0.0
2017-Oct-18 23:31N 33°43' W 118°13'0 0.0
2017-Oct-18 23:01N 33°43' W 118°13'0 0.1
2017-Oct-18 22:31N 33°43' W 118°13'0 0.2
2017-Oct-18 22:00N 33°43' W 118°13'0 0.3
2017-Oct-18 21:30N 33°42' W 118°13'3 5.3
2017-Oct-18 21:00N 33°40' W 118°13'510.4
2017-Oct-18 20:30N 33°36' W 118°17'6 9.9
2017-Oct-18 19:55N 33°37' W 118°24'3 8.2
2017-Oct-18 19:31N 33°39' W 118°27'4 9.0
2017-Oct-18 19:00N 33°42' W 118°32'611.9
2017-Oct-18 18:28N 33°45' W 118°38'611.8
2017-Oct-18 17:58N 33°47' W 118°45'611.6
2017-Oct-18 17:29N 33°50' W 118°51'611.8
2017-Oct-18 16:57N 33°53' W 118°57'  

Dump ship's entire track history